Time;durP1;ratioP1;P1;durP2;ratioP2;P2;SDS_P1;SDS_P2;PMS_P1;PMS_P2;Temp;Humidity;BMP_temperature;BMP_pressure;BME280_temperature;BME280_humidity;BME280_pressure;Samples;Min_cycle;Max_cycle;Signal;HPM_P1;HPM_P2
2024/01/07 00:00:47;;;;;;;1.13;1.13;;;2.80;99.90;;;;;;5012371;28;20344;-63
2024/01/07 00:03:16;;;;;;;1.70;1.60;;;2.70;99.90;;;;;;5030615;28;20243;-63
2024/01/07 00:05:43;;;;;;;1.53;0.80;;;2.90;99.90;;;;;;5037991;28;20582;-63
2024/01/07 00:08:10;;;;;;;1.00;1.00;;;3.00;99.90;;;;;;5039539;28;20199;-63
2024/01/07 00:10:37;;;;;;;1.30;1.30;;;3.10;99.90;;;;;;5048686;28;20338;-63
2024/01/07 00:13:04;;;;;;;0.90;0.90;;;3.00;99.90;;;;;;5057403;28;20770;-63
2024/01/07 00:15:31;;;;;;;1.23;1.17;;;2.80;99.90;;;;;;5051441;28;20207;-63
2024/01/07 00:17:58;;;;;;;1.67;1.60;;;2.90;99.90;;;;;;5043190;28;20813;-63
2024/01/07 00:20:26;;;;;;;1.00;1.00;;;2.90;99.90;;;;;;5039150;28;20242;-63
2024/01/07 00:22:53;;;;;;;1.90;1.80;;;2.90;99.90;;;;;;5051146;28;20603;-63
2024/01/07 00:25:20;;;;;;;1.93;1.83;;;3.00;99.90;;;;;;5045886;28;20254;-63
2024/01/07 00:27:47;;;;;;;2.30;2.10;;;3.00;99.90;;;;;;5039641;28;20631;-63
2024/01/07 00:30:14;;;;;;;2.60;2.40;;;2.90;99.90;;;;;;5029080;28;20244;-63
2024/01/07 00:32:41;;;;;;;2.17;2.07;;;2.90;99.90;;;;;;5048387;28;20247;-64
2024/01/07 00:35:08;;;;;;;1.90;1.80;;;3.00;99.90;;;;;;5042841;28;20261;-63
2024/01/07 00:37:37;;;;;;;2.13;2.03;;;2.90;99.90;;;;;;5031192;28;20201;-64
2024/01/07 00:40:05;;;;;;;2.63;2.43;;;2.90;99.90;;;;;;5029699;28;20673;-63
2024/01/07 00:42:32;;;;;;;2.70;2.50;;;2.80;99.90;;;;;;5028706;28;20270;-63
2024/01/07 00:44:59;;;;;;;2.97;2.77;;;2.90;99.90;;;;;;5039104;28;20631;-63
2024/01/07 00:47:26;;;;;;;2.23;2.03;;;2.90;99.90;;;;;;5047543;28;20199;-63
2024/01/07 00:49:53;;;;;;;3.70;2.30;;;2.90;99.90;;;;;;5050108;28;20241;-64
2024/01/07 00:52:42;;;;;;;2.17;2.07;;;2.80;99.90;;;;;;5040909;28;20244;-63
2024/01/07 00:55:09;;;;;;;3.10;3.00;;;3.00;99.90;;;;;;5025689;28;20287;-63
2024/01/07 00:57:36;;;;;;;2.60;2.43;;;3.10;99.90;;;;;;5039179;28;20226;-63
2024/01/07 01:00:07;;;;;;;2.93;2.73;;;2.90;99.90;;;;;;5031217;28;20673;-63
2024/01/07 01:02:35;;;;;;;3.47;3.17;;;2.90;99.90;;;;;;5032634;28;20785;-63
2024/01/07 01:05:02;;;;;;;3.37;3.17;;;3.00;99.90;;;;;;5034628;28;20633;-64
2024/01/07 01:07:29;;;;;;;3.03;2.87;;;3.00;99.90;;;;;;5031651;28;20250;-63
2024/01/07 01:09:58;;;;;;;2.60;2.40;;;3.00;99.90;;;;;;5042868;28;20733;-63
2024/01/07 01:12:25;;;;;;;3.93;3.63;;;2.90;99.90;;;;;;5053947;28;20210;-64
2024/01/07 01:14:52;;;;;;;4.57;4.20;;;3.00;99.90;;;;;;5054233;28;20671;-63
2024/01/07 01:17:19;;;;;;;4.53;4.13;;;3.00;99.90;;;;;;5054357;28;20208;-64
2024/01/07 01:19:46;;;;;;;4.73;4.33;;;2.90;99.90;;;;;;5048422;28;20210;-63
2024/01/07 01:22:13;;;;;;;5.30;4.87;;;2.90;99.90;;;;;;5042459;28;20220;-64
2024/01/07 01:24:40;;;;;;;5.80;5.30;;;2.90;99.90;;;;;;5052048;28;20274;-64
2024/01/07 01:27:08;;;;;;;8.33;5.20;;;3.00;99.90;;;;;;5038923;28;20634;-64
2024/01/07 01:29:35;;;;;;;5.40;4.90;;;3.10;99.90;;;;;;5033253;28;20680;-63
2024/01/07 01:32:06;;;;;;;5.23;4.73;;;2.90;99.90;;;;;;5032998;28;20197;-64
2024/01/07 01:34:33;;;;;;;3.77;3.57;;;3.00;99.90;;;;;;5043136;28;20220;-64
2024/01/07 01:37:03;;;;;;;4.53;4.23;;;3.10;99.90;;;;;;5053736;28;20277;-64
2024/01/07 01:39:30;;;;;;;4.17;3.97;;;3.10;99.90;;;;;;5052586;28;20208;-64
2024/01/07 01:41:58;;;;;;;3.83;3.60;;;3.20;99.90;;;;;;5053358;28;20224;-64
2024/01/07 01:44:27;;;;;;;4.50;4.20;;;3.20;99.90;;;;;;5035868;28;20236;-64
2024/01/07 01:46:56;;;;;;;7.07;6.23;;;3.00;99.90;;;;;;5045229;28;20207;-64
2024/01/07 01:49:23;;;;;;;6.60;5.83;;;3.20;99.90;;;;;;5052692;28;20204;-64
2024/01/07 01:51:52;;;;;;;5.67;5.10;;;3.10;99.90;;;;;;5053288;28;20201;-63
2024/01/07 01:54:19;;;;;;;7.97;6.37;;;3.10;99.90;;;;;;5052903;28;20315;-63
2024/01/07 01:56:46;;;;;;;7.60;6.80;;;3.10;99.90;;;;;;5038556;28;20209;-64
2024/01/07 01:59:13;;;;;;;6.57;5.97;;;2.90;99.90;;;;;;5041461;28;20201;-64
2024/01/07 02:01:41;;;;;;;8.03;6.03;;;2.90;99.90;;;;;;5033821;28;20279;-64
2024/01/07 02:04:10;;;;;;;4.43;4.03;;;2.90;99.90;;;;;;5031622;28;20231;-64
2024/01/07 02:06:37;;;;;;;4.83;4.43;;;3.00;99.90;;;;;;5027431;28;20281;-64
2024/01/07 02:09:04;;;;;;;5.27;4.77;;;3.00;99.90;;;;;;5032809;28;20240;-64
2024/01/07 02:11:31;;;;;;;4.33;4.07;;;2.90;99.90;;;;;;5041039;28;20256;-64
2024/01/07 02:13:58;;;;;;;4.53;4.13;;;2.90;99.90;;;;;;5053265;28;20818;-64
2024/01/07 02:16:25;;;;;;;5.60;5.10;;;3.10;99.90;;;;;;5053334;28;20200;-64
2024/01/07 02:18:53;;;;;;;4.80;4.40;;;3.10;99.90;;;;;;5036992;28;20204;-64
2024/01/07 02:21:20;;;;;;;4.07;3.60;;;;;;;;;;5030605;28;20220;-64
2024/01/07 02:23:48;;;;;;;3.70;3.43;;;;;;;;;;5044287;28;20216;-64
2024/01/07 02:26:16;;;;;;;4.23;3.93;;;;;;;;;;5053046;28;20207;-64
2024/01/07 02:28:43;;;;;;;4.67;4.37;;;3.00;99.90;;;;;;5053022;28;20231;-64
2024/01/07 02:31:10;;;;;;;5.00;4.60;;;3.10;99.90;;;;;;5052069;28;20203;-63
2024/01/07 02:33:37;;;;;;;5.13;4.63;;;;;;;;;;5052371;28;20236;-63
2024/01/07 02:36:05;;;;;;;5.13;4.73;;;;;;;;;;5037606;28;20258;-64
2024/01/07 02:38:32;;;;;;;5.30;4.80;;;;;;;;;;5047963;28;20246;-64
2024/01/07 02:40:59;;;;;;;5.13;4.63;;;3.20;99.90;;;;;;5039109;28;20232;-64
2024/01/07 02:43:27;;;;;;;4.87;4.47;;;3.30;99.90;;;;;;5049225;28;20282;-64
2024/01/07 02:45:54;;;;;;;5.17;4.67;;;3.30;99.90;;;;;;5052487;28;20207;-64
2024/01/07 02:48:21;;;;;;;4.70;4.33;;;3.30;99.90;;;;;;5040082;28;20212;-64
2024/01/07 02:50:48;;;;;;;5.87;5.27;;;3.00;99.90;;;;;;5039071;28;20216;-64
2024/01/07 02:53:15;;;;;;;5.57;5.07;;;;;;;;;;5032445;28;20224;-64
2024/01/07 02:55:42;;;;;;;5.83;5.30;;;3.20;99.90;;;;;;5032720;28;20266;-64
2024/01/07 02:58:09;;;;;;;5.27;4.80;;;3.10;99.90;;;;;;5031576;28;20349;-64
2024/01/07 03:00:37;;;;;;;5.90;5.37;;;3.20;99.90;;;;;;5037939;28;20208;-64
2024/01/07 03:03:04;;;;;;;5.63;5.03;;;3.00;99.90;;;;;;5045864;28;20220;-64
2024/01/07 03:05:32;;;;;;;6.00;5.50;;;3.00;99.90;;;;;;5045506;28;20192;-64
2024/01/07 03:08:00;;;;;;;4.87;4.47;;;3.20;99.90;;;;;;5030257;28;20721;-64
2024/01/07 03:10:27;;;;;;;6.20;5.50;;;3.10;99.90;;;;;;5031652;28;20219;-64
2024/01/07 03:12:54;;;;;;;6.37;5.73;;;3.10;99.90;;;;;;5036256;28;20228;-64
2024/01/07 03:15:21;;;;;;;6.00;5.43;;;3.10;99.90;;;;;;5048237;28;20268;-64
2024/01/07 03:17:49;;;;;;;5.80;5.23;;;;;;;;;;5052224;28;20556;-64
2024/01/07 03:20:16;;;;;;;6.47;5.83;;;;;;;;;;5051559;28;20629;-64
2024/01/07 03:22:43;;;;;;;6.13;5.37;;;3.10;99.90;;;;;;5041656;28;20271;-64
2024/01/07 03:25:10;;;;;;;6.27;4.97;;;3.10;99.90;;;;;;5037162;28;20212;-64
2024/01/07 03:27:37;;;;;;;6.47;5.90;;;3.00;99.90;;;;;;5043539;28;20583;-64
2024/01/07 03:30:05;;;;;;;6.57;5.73;;;3.10;99.90;;;;;;5051854;28;20746;-64
2024/01/07 03:32:32;;;;;;;5.10;4.70;;;3.20;99.90;;;;;;5052639;28;20254;-64
2024/01/07 03:35:00;;;;;;;6.07;5.47;;;3.20;99.90;;;;;;5051782;28;20208;-64
2024/01/07 03:37:27;;;;;;;5.43;4.93;;;3.20;99.90;;;;;;5044945;28;20208;-64
2024/01/07 03:39:54;;;;;;;5.97;5.03;;;3.20;99.90;;;;;;5042972;28;20204;-64
2024/01/07 03:42:21;;;;;;;6.20;5.60;;;3.10;99.90;;;;;;5042676;28;20216;-64
2024/01/07 03:44:48;;;;;;;6.00;5.33;;;3.20;99.90;;;;;;5031941;28;20259;-64
2024/01/07 03:47:15;;;;;;;6.23;5.63;;;3.00;99.90;;;;;;5031824;28;20588;-64
2024/01/07 03:49:42;;;;;;;6.53;4.87;;;3.10;99.90;;;;;;5030892;28;20287;-64
2024/01/07 03:52:10;;;;;;;7.10;5.23;;;3.10;99.90;;;;;;5043393;28;20807;-64
2024/01/07 03:54:37;;;;;;;6.17;5.57;;;3.10;99.90;;;;;;5051428;28;20650;-64
2024/01/07 03:57:05;;;;;;;6.17;5.50;;;3.30;99.90;;;;;;5037476;28;20204;-64
2024/01/07 03:59:31;;;;;;;5.93;5.43;;;3.20;99.90;;;;;;5028904;28;20204;-64
2024/01/07 04:02:02;;;;;;;6.57;5.90;;;3.20;99.90;;;;;;5033444;28;20699;-64
2024/01/07 04:04:29;;;;;;;6.30;5.70;;;3.10;99.90;;;;;;5043267;28;20251;-64
2024/01/07 04:06:56;;;;;;;7.17;6.40;;;3.00;99.90;;;;;;5051164;28;20252;-64
2024/01/07 04:09:24;;;;;;;7.43;6.17;;;3.20;99.90;;;;;;5050824;28;20199;-64
2024/01/07 04:11:51;;;;;;;6.23;5.63;;;3.10;99.90;;;;;;5051711;28;20200;-63
2024/01/07 04:14:18;;;;;;;7.13;5.50;;;3.20;99.90;;;;;;5029844;28;20224;-63
2024/01/07 04:16:45;;;;;;;7.23;5.50;;;3.00;99.90;;;;;;5042285;28;20196;-63
2024/01/07 04:19:12;;;;;;;6.63;5.50;;;3.10;99.90;;;;;;5051651;28;20203;-64
2024/01/07 04:21:39;;;;;;;12.20;6.30;;;3.00;99.90;;;;;;5056191;28;20204;-64
2024/01/07 04:24:06;;;;;;;8.17;6.53;;;3.10;99.90;;;;;;5051546;28;20228;-63
2024/01/07 04:26:35;;;;;;;8.67;6.10;;;3.00;99.90;;;;;;5049489;28;20249;-64
2024/01/07 04:29:02;;;;;;;6.57;5.87;;;2.90;99.90;;;;;;5038805;28;20263;-63
2024/01/07 04:31:29;;;;;;;7.97;7.13;;;3.00;99.90;;;;;;5040139;28;20242;-63
2024/01/07 04:33:56;;;;;;;9.73;7.57;;;;;;;;;;5032427;28;20592;-63
2024/01/07 04:36:23;;;;;;;10.93;7.73;;;2.80;99.90;;;;;;5034781;28;20254;-64
2024/01/07 04:38:49;;;;;;;7.73;6.13;;;2.90;99.90;;;;;;5035945;28;20680;-64
2024/01/07 04:41:16;;;;;;;9.93;7.60;;;2.90;99.90;;;;;;5042846;28;20204;-64
2024/01/07 04:43:45;;;;;;;8.60;7.57;;;2.80;99.90;;;;;;5039459;28;20701;-63
2024/01/07 04:46:12;;;;;;;7.30;6.47;;;2.80;99.90;;;;;;5055016;28;20199;-63
2024/01/07 04:48:39;;;;;;;7.73;6.90;;;2.90;99.90;;;;;;5053736;28;20208;-64
2024/01/07 04:51:06;;;;;;;11.37;8.17;;;2.70;99.90;;;;;;5032816;28;20204;-64
2024/01/07 04:53:33;;;;;;;9.23;6.93;;;2.80;99.90;;;;;;5041194;28;20221;-64
2024/01/07 04:56:00;;;;;;;8.40;6.90;;;2.90;99.90;;;;;;5047632;28;20204;-64
2024/01/07 04:58:27;;;;;;;8.23;6.43;;;2.90;99.90;;;;;;5054350;28;20692;-64
2024/01/07 05:00:55;;;;;;;16.27;8.90;;;2.80;99.90;;;;;;5033244;28;20209;-63
2024/01/07 05:03:22;;;;;;;10.53;8.13;;;2.60;99.90;;;;;;5034384;28;20228;-64
2024/01/07 05:05:49;;;;;;;8.80;7.33;;;2.70;99.90;;;;;;5040759;28;20273;-64
2024/01/07 05:08:16;;;;;;;7.37;6.47;;;2.80;99.90;;;;;;5049293;28;20268;-63
2024/01/07 05:10:43;;;;;;;7.70;5.80;;;2.80;99.90;;;;;;5053696;28;20684;-63
2024/01/07 05:13:10;;;;;;;7.53;6.60;;;2.80;99.90;;;;;;5033745;28;20271;-63
2024/01/07 05:15:37;;;;;;;6.00;5.40;;;2.60;99.90;;;;;;5034230;28;20287;-63
2024/01/07 05:18:09;;;;;;;7.53;6.17;;;2.60;99.90;;;;;;5031810;28;20637;-63
2024/01/07 05:20:36;;;;;;;7.27;6.53;;;2.50;99.90;;;;;;5035474;28;20287;-63
2024/01/07 05:23:03;;;;;;;6.17;5.37;;;2.50;99.90;;;;;;5034108;28;20669;-63
2024/01/07 05:25:30;;;;;;;6.30;5.30;;;2.50;99.90;;;;;;5033883;28;20575;-63
2024/01/07 05:27:57;;;;;;;6.40;5.80;;;2.70;99.90;;;;;;5034165;28;20202;-63
2024/01/07 05:30:23;;;;;;;6.33;5.73;;;2.70;99.90;;;;;;5038036;28;20291;-63
2024/01/07 05:32:50;;;;;;;5.23;4.60;;;2.70;99.90;;;;;;5034012;28;20225;-63
2024/01/07 05:35:19;;;;;;;5.00;4.50;;;2.70;99.90;;;;;;5033058;28;20254;-64
2024/01/07 05:37:46;;;;;;;6.17;5.33;;;2.60;99.90;;;;;;5042260;28;20255;-63
2024/01/07 05:40:13;;;;;;;5.80;4.77;;;2.60;99.90;;;;;;5033147;28;20592;-63
2024/01/07 05:42:40;;;;;;;5.50;5.00;;;2.60;99.90;;;;;;5033330;28;20654;-63
2024/01/07 05:45:08;;;;;;;5.70;4.63;;;2.60;99.90;;;;;;5042000;28;20246;-63
2024/01/07 05:47:35;;;;;;;4.27;3.87;;;2.50;99.90;;;;;;5040945;28;20257;-63
2024/01/07 05:50:02;;;;;;;5.63;4.20;;;2.50;99.90;;;;;;5033162;28;20200;-63
2024/01/07 05:52:30;;;;;;;4.33;3.70;;;2.60;99.90;;;;;;5031825;28;20210;-63
2024/01/07 05:54:57;;;;;;;4.13;3.77;;;2.70;99.90;;;;;;5033605;28;20255;-63
2024/01/07 05:57:24;;;;;;;5.00;4.50;;;2.50;99.90;;;;;;5033535;28;20203;-63
2024/01/07 05:59:51;;;;;;;4.53;3.83;;;2.70;99.90;;;;;;5030909;28;20259;-64
2024/01/07 06:02:18;;;;;;;4.13;3.77;;;2.70;99.90;;;;;;5032718;28;20283;-63
2024/01/07 06:04:45;;;;;;;2.50;2.30;;;2.80;99.90;;;;;;5033291;28;20250;-63
2024/01/07 06:07:12;;;;;;;3.83;3.50;;;2.60;99.90;;;;;;5035300;28;20201;-63
2024/01/07 06:09:40;;;;;;;2.83;2.63;;;2.90;99.90;;;;;;5031986;28;20208;-64
2024/01/07 06:12:08;;;;;;;3.07;2.77;;;2.50;99.90;;;;;;5031275;28;20205;-64
2024/01/07 06:14:35;;;;;;;2.90;2.70;;;2.50;99.90;;;;;;5032881;28;20225;-63
2024/01/07 06:17:02;;;;;;;3.47;2.70;;;2.70;99.90;;;;;;5033072;28;20722;-64
2024/01/07 06:19:28;;;;;;;2.60;2.40;;;2.60;99.90;;;;;;5032602;28;20205;-64
2024/01/07 06:21:56;;;;;;;2.47;2.27;;;2.70;99.90;;;;;;5039864;28;20206;-63
2024/01/07 06:24:23;;;;;;;2.83;2.63;;;2.70;99.90;;;;;;5040589;28;20232;-63
2024/01/07 06:26:52;;;;;;;2.57;2.37;;;2.80;99.90;;;;;;5033028;28;20218;-64
2024/01/07 06:29:18;;;;;;;2.07;1.97;;;2.60;99.90;;;;;;5030637;28;20672;-64
2024/01/07 06:31:46;;;;;;;2.17;2.07;;;2.80;99.90;;;;;;5032293;28;20262;-63
2024/01/07 06:34:13;;;;;;;1.87;1.77;;;2.50;99.90;;;;;;5032561;28;20220;-63
2024/01/07 06:36:41;;;;;;;1.87;1.77;;;2.60;99.90;;;;;;5032547;28;20200;-63
2024/01/07 06:39:08;;;;;;;2.23;2.00;;;2.80;99.90;;;;;;5032632;28;20291;-63
2024/01/07 06:41:35;;;;;;;1.70;1.60;;;2.80;99.90;;;;;;5031524;28;20200;-63
2024/01/07 06:44:04;;;;;;;2.27;2.13;;;2.70;99.90;;;;;;5032026;28;20647;-63
2024/01/07 06:46:34;;;;;;;1.90;1.80;;;2.70;99.90;;;;;;5032227;28;20196;-64
2024/01/07 06:49:01;;;;;;;3.00;2.73;;;2.70;99.90;;;;;;5032465;28;20642;-63
2024/01/07 06:51:28;;;;;;;2.80;2.60;;;2.80;99.90;;;;;;5031533;28;20250;-63
2024/01/07 06:53:55;;;;;;;3.20;2.90;;;2.60;99.90;;;;;;5031814;28;20712;-63
2024/01/07 06:56:21;;;;;;;2.90;2.70;;;2.80;99.90;;;;;;5031930;28;20672;-63
2024/01/07 06:58:49;;;;;;;2.73;2.53;;;2.70;99.90;;;;;;5031865;28;20208;-64
2024/01/07 07:01:22;;;;;;;2.70;2.50;;;2.70;99.90;;;;;;5028879;28;20644;-63
2024/01/07 07:03:49;;;;;;;2.23;2.03;;;2.80;99.90;;;;;;5031554;28;20219;-63
2024/01/07 07:06:16;;;;;;;2.63;2.43;;;2.60;99.90;;;;;;5031881;28;20204;-63
2024/01/07 07:08:43;;;;;;;3.27;2.93;;;2.70;99.90;;;;;;5031874;28;20724;-63
2024/01/07 07:11:10;;;;;;;2.63;2.53;;;2.90;99.90;;;;;;5030776;28;20204;-63
2024/01/07 07:13:38;;;;;;;2.30;2.20;;;2.90;99.90;;;;;;5031611;28;20691;-63
2024/01/07 07:16:06;;;;;;;2.10;2.00;;;2.80;99.90;;;;;;5031726;28;20280;-63
2024/01/07 07:18:34;;;;;;;2.07;1.97;;;3.00;99.90;;;;;;5029252;28;20244;-63
2024/01/07 07:21:02;;;;;;;2.73;2.53;;;2.90;99.90;;;;;;5030780;28;20204;-63
2024/01/07 07:23:28;;;;;;;2.33;2.23;;;2.80;99.90;;;;;;5029467;28;20310;-63
2024/01/07 07:25:56;;;;;;;2.43;2.17;;;2.80;99.90;;;;;;5023624;28;20195;-64
2024/01/07 07:28:23;;;;;;;2.47;2.27;;;2.70;99.90;;;;;;5031721;28;20770;-63
2024/01/07 07:30:50;;;;;;;2.73;2.43;;;2.80;99.90;;;;;;5031042;28;20287;-63
2024/01/07 07:33:18;;;;;;;2.37;2.07;;;2.80;99.90;;;;;;5038024;28;20219;-63
2024/01/07 07:35:46;;;;;;;2.63;2.53;;;2.90;99.90;;;;;;5032420;28;20202;-63
2024/01/07 07:38:14;;;;;;;2.20;2.00;;;2.90;99.90;;;;;;5031840;28;20215;-63
2024/01/07 07:40:41;;;;;;;3.83;2.80;;;3.00;99.90;;;;;;5034398;28;20289;-63
2024/01/07 07:43:09;;;;;;;2.70;2.50;;;2.90;99.90;;;;;;5027479;28;20259;-63
2024/01/07 07:45:36;;;;;;;3.07;2.87;;;3.10;99.90;;;;;;5031523;28;20250;-63
2024/01/07 07:48:03;;;;;;;3.40;3.10;;;3.10;99.90;;;;;;5031529;28;20293;-63
2024/01/07 07:50:30;;;;;;;2.80;2.60;;;3.10;99.90;;;;;;5030591;28;20254;-63
2024/01/07 07:52:58;;;;;;;2.70;2.60;;;3.20;99.90;;;;;;5031313;28;20220;-63
2024/01/07 07:55:25;;;;;;;3.80;3.50;;;3.00;99.90;;;;;;5031512;28;20195;-63
2024/01/07 07:57:52;;;;;;;3.70;3.40;;;3.00;99.90;;;;;;5031408;28;20204;-63
2024/01/07 08:00:19;;;;;;;3.77;3.43;;;3.10;99.90;;;;;;5030668;28;20206;-63
2024/01/07 08:02:46;;;;;;;4.93;3.93;;;3.20;99.90;;;;;;5029363;28;20711;-63
2024/01/07 08:05:13;;;;;;;4.57;4.13;;;3.00;99.90;;;;;;5031408;28;20196;-63
2024/01/07 08:07:41;;;;;;;4.87;4.37;;;2.90;99.90;;;;;;5031553;28;20207;-63
2024/01/07 08:10:10;;;;;;;5.83;5.03;;;3.10;99.90;;;;;;5036049;28;20246;-64
2024/01/07 08:12:37;;;;;;;4.87;4.33;;;3.00;99.90;;;;;;5032598;28;20225;-63
2024/01/07 08:15:05;;;;;;;5.90;5.30;;;2.90;99.90;;;;;;5035397;28;20251;-63
2024/01/07 08:17:32;;;;;;;7.20;6.10;;;2.90;99.90;;;;;;5035329;28;20253;-63
2024/01/07 08:19:59;;;;;;;6.70;5.50;;;2.80;99.90;;;;;;5034747;28;20926;-63
2024/01/07 08:22:26;;;;;;;7.43;5.60;;;2.40;99.90;;;;;;5035304;28;20575;-63
2024/01/07 08:24:53;;;;;;;6.07;5.47;;;2.90;99.90;;;;;;5035029;28;20273;-63
2024/01/07 08:27:22;;;;;;;6.70;6.00;;;3.00;99.90;;;;;;5035127;28;20617;-63
2024/01/07 08:29:49;;;;;;;9.87;5.97;;;2.90;99.90;;;;;;5034122;28;20569;-63
2024/01/07 08:32:16;;;;;;;5.60;5.10;;;3.00;99.90;;;;;;5039394;28;20227;-63
2024/01/07 08:34:43;;;;;;;9.90;7.83;;;3.10;99.90;;;;;;5035500;28;20201;-63
2024/01/07 08:37:09;;;;;;;10.93;8.60;;;3.10;99.90;;;;;;5043334;28;20252;-63
2024/01/07 08:39:37;;;;;;;10.67;8.50;;;3.00;99.90;;;;;;5037307;28;20204;-63
2024/01/07 08:42:06;;;;;;;9.93;7.20;;;3.10;99.90;;;;;;5035152;28;20749;-64
2024/01/07 08:44:35;;;;;;;9.97;7.87;;;2.90;99.90;;;;;;5034796;28;20223;-63
2024/01/07 08:47:04;;;;;;;9.73;8.33;;;2.90;99.90;;;;;;5033338;28;20257;-63
2024/01/07 08:49:32;;;;;;;10.60;8.37;;;2.80;99.90;;;;;;5031496;28;20204;-64
2024/01/07 08:51:59;;;;;;;9.30;8.40;;;2.60;99.90;;;;;;5039244;28;20526;-63
2024/01/07 08:54:26;;;;;;;10.27;8.50;;;2.80;99.90;;;;;;5030019;28;20286;-62
2024/01/07 08:56:54;;;;;;;10.17;8.40;;;2.70;99.90;;;;;;5040444;28;20200;-62
2024/01/07 08:59:21;;;;;;;10.67;8.00;;;2.60;99.90;;;;;;5040713;28;20196;-63
2024/01/07 09:01:49;;;;;;;9.90;8.13;;;2.70;99.90;;;;;;5030638;28;20212;-60
2024/01/07 09:04:17;;;;;;;8.07;7.20;;;2.70;99.90;;;;;;5044251;28;20659;-63
2024/01/07 09:06:44;;;;;;;10.25;9.25;;;2.90;99.90;;;;;;5040226;28;20858;-62
2024/01/07 09:09:11;;;;;;;10.63;8.03;;;2.90;99.90;;;;;;5041500;28;20261;-62
2024/01/07 09:11:38;;;;;;;8.47;6.70;;;2.80;99.90;;;;;;5046569;28;20234;-64
2024/01/07 09:14:05;;;;;;;8.17;6.40;;;2.90;99.90;;;;;;5037756;28;20668;-68
2024/01/07 09:16:32;;;;;;;8.30;7.50;;;3.00;99.90;;;;;;5045976;28;20192;-66
2024/01/07 09:19:01;;;;;;;5.57;5.07;;;3.10;99.90;;;;;;5035264;28;20258;-66
2024/01/07 09:21:28;;;;;;;5.07;4.67;;;3.10;99.90;;;;;;5041492;28;20196;-69
2024/01/07 09:23:55;;;;;;;5.00;4.50;;;3.40;99.90;;;;;;5038365;28;20220;-69
2024/01/07 09:26:22;;;;;;;4.47;4.07;;;3.40;99.90;;;;;;5043305;28;20464;-70
2024/01/07 09:28:49;;;;;;;4.80;4.30;;;3.50;99.90;;;;;;5039314;28;20209;-69
2024/01/07 09:31:16;;;;;;;5.80;5.23;;;3.40;99.90;;;;;;5041600;28;20205;-71
2024/01/07 09:33:45;;;;;;;5.03;4.50;;;3.50;99.90;;;;;;5033205;28;20231;-65
2024/01/07 09:36:13;;;;;;;5.10;4.60;;;3.40;99.90;;;;;;5031811;28;20210;-65
2024/01/07 09:38:41;;;;;;;5.07;4.60;;;3.50;99.90;;;;;;5030130;28;20643;-65
2024/01/07 09:41:09;;;;;;;6.87;5.47;;;3.50;99.90;;;;;;5028814;28;20239;-66
2024/01/07 09:43:36;;;;;;;7.53;5.20;;;3.30;99.90;;;;;;5027606;28;20290;-65
2024/01/07 09:46:04;;;;;;;6.10;5.40;;;3.30;99.90;;;;;;5027775;28;20212;-66
2024/01/07 09:48:31;;;;;;;6.30;5.40;;;3.30;99.90;;;;;;5025185;28;20207;-67
2024/01/07 09:50:59;;;;;;;5.63;5.13;;;3.30;99.90;;;;;;5026368;28;20243;-65
2024/01/07 09:53:32;;;;;;;6.97;5.87;;;3.10;99.90;;;;;;5034289;28;20324;-65
2024/01/07 09:56:13;;;;;;;6.33;5.73;;;3.30;99.90;;;;;;5021166;28;20204;-65
2024/01/07 09:58:42;;;;;;;7.73;6.07;;;3.40;99.90;;;;;;5030414;28;20207;-65
2024/01/07 10:01:09;;;;;;;6.97;6.23;;;3.40;99.90;;;;;;5029509;28;20203;-65
2024/01/07 10:03:36;;;;;;;7.20;6.07;;;3.30;99.90;;;;;;5031376;28;20293;-66
2024/01/07 10:06:03;;;;;;;6.77;5.87;;;3.20;99.90;;;;;;5030006;28;20776;-65
2024/01/07 10:08:33;;;;;;;8.47;6.63;;;3.40;99.90;;;;;;5022116;28;20216;-65
2024/01/07 10:11:01;;;;;;;9.53;7.07;;;3.20;99.90;;;;;;5025932;28;20235;-66
2024/01/07 10:13:28;;;;;;;10.03;7.73;;;3.10;99.90;;;;;;5031664;28;20256;-65
2024/01/07 10:15:55;;;;;;;8.50;6.90;;;3.40;99.90;;;;;;5029013;28;20235;-66
2024/01/07 10:18:23;;;;;;;6.63;5.87;;;3.40;99.90;;;;;;5032163;28;20583;-66
2024/01/07 10:20:50;;;;;;;9.47;7.13;;;3.50;99.90;;;;;;5029421;28;20258;-65
2024/01/07 10:23:20;;;;;;;9.53;6.53;;;3.40;99.90;;;;;;5031471;28;20278;-66
2024/01/07 10:25:49;;;;;;;8.67;7.10;;;3.30;99.90;;;;;;5032635;28;20221;-66
2024/01/07 10:28:16;;;;;;;9.23;6.47;;;3.30;99.90;;;;;;5031989;28;20200;-64
2024/01/07 10:30:50;;;;;;;7.60;6.90;;;3.30;99.90;;;;;;5023026;28;20200;-64
2024/01/07 10:33:19;;;;;;;9.63;8.47;;;3.40;99.90;;;;;;5031880;28;20244;-64
2024/01/07 10:35:53;;;;;;;7.90;6.73;;;3.40;99.90;;;;;;5032356;28;20223;-63
2024/01/07 10:38:21;;;;;;;8.80;7.67;;;3.60;99.90;;;;;;5032758;28;20675;-63
2024/01/07 10:40:53;;;;;;;8.47;7.50;;;3.50;99.90;;;;;;5031436;28;20199;-64
2024/01/07 10:43:21;;;;;;;7.60;6.80;;;3.70;99.90;;;;;;5032375;28;20228;-64
2024/01/07 10:45:49;;;;;;;6.00;5.43;;;3.60;99.90;;;;;;5032502;28;20216;-63
2024/01/07 10:48:19;;;;;;;6.77;6.00;;;3.70;99.90;;;;;;5028765;28;20299;-64
2024/01/07 10:50:48;;;;;;;8.93;6.87;;;3.50;99.90;;;;;;5033062;28;20291;-63
2024/01/07 10:53:20;;;;;;;9.07;6.63;;;3.80;99.90;;;;;;5035641;28;20224;-64
2024/01/07 10:55:55;;;;;;;8.43;7.57;;;3.70;99.90;;;;;;5031341;28;20219;-64
2024/01/07 10:58:22;;;;;;;7.97;6.87;;;3.70;99.90;;;;;;5032725;28;20207;-64
2024/01/07 11:00:50;;;;;;;8.52;7.40;;;3.70;99.90;;;;;;5029215;28;20465;-67
2024/01/07 11:03:25;;;;;;;6.93;6.23;;;3.70;99.90;;;;;;5029816;28;20235;-64
2024/01/07 11:05:57;;;;;;;7.97;6.60;;;3.60;99.90;;;;;;5017806;28;20320;-65
2024/01/07 11:08:31;;;;;;;8.10;6.93;;;3.60;99.90;;;;;;5012355;28;20638;-66
2024/01/07 11:11:08;;;;;;;8.63;7.10;;;3.60;99.90;;;;;;5031465;28;20211;-61
2024/01/07 11:13:37;;;;;;;8.23;7.40;;;3.50;99.90;;;;;;5035905;28;20228;-60
2024/01/07 11:16:05;;;;;;;9.60;7.53;;;3.70;99.90;;;;;;5029237;28;20656;-60
2024/01/07 11:18:34;;;;;;;11.77;7.97;;;3.70;99.90;;;;;;5031324;28;20204;-60
2024/01/07 11:21:02;;;;;;;9.20;7.17;;;3.60;99.90;;;;;;5044872;28;20602;-61
2024/01/07 11:23:34;;;;;;;9.17;7.60;;;3.70;99.90;;;;;;5037778;28;20223;-61
2024/01/07 11:26:02;;;;;;;11.57;9.17;;;3.80;99.90;;;;;;5034081;28;20227;-61
2024/01/07 11:28:50;;;;;;;10.73;8.33;;;3.80;99.90;;;;;;5029851;28;20199;-60
2024/01/07 11:31:18;;;;;;;8.17;7.33;;;3.60;99.90;;;;;;5025225;28;20204;-61
2024/01/07 11:33:46;;;;;;;9.47;7.63;;;3.80;99.90;;;;;;5028547;28;20224;-61
2024/01/07 11:36:14;;;;;;;9.63;8.00;;;3.90;99.90;;;;;;5035500;28;20184;-61
2024/01/07 11:38:45;;;;;;;8.10;7.30;;;3.80;99.90;;;;;;5032184;28;20283;-61
2024/01/07 11:41:14;;;;;;;11.07;8.13;;;3.80;99.90;;;;;;5030902;28;20711;-61
2024/01/07 11:43:55;;;;;;;9.73;7.10;;;3.70;99.90;;;;;;5031485;28;20237;-64
2024/01/07 11:46:22;;;;;;;9.77;7.93;;;3.80;99.90;;;;;;5022084;28;20267;-67
2024/01/07 11:48:49;;;;;;;8.87;7.97;;;3.70;99.90;;;;;;5021785;28;20208;-70
2024/01/07 11:51:17;;;;;;;7.27;6.17;;;3.70;99.90;;;;;;5016192;28;20623;-69
2024/01/07 11:53:47;;;;;;;7.13;5.90;;;;;;;;;;5021659;28;20252;-71
2024/01/07 11:56:16;;;;;;;7.43;6.57;;;;;;;;;;5028465;28;20200;-77
2024/01/07 11:58:43;;;;;;;8.80;7.07;;;3.50;99.90;;;;;;5026676;28;20200;-73
2024/01/07 12:01:10;;;;;;;7.77;6.97;;;3.60;99.90;;;;;;5020978;28;20197;-71
2024/01/07 12:03:37;;;;;;;9.03;7.23;;;3.50;99.90;;;;;;5026722;28;20220;-71
2024/01/07 12:06:04;;;;;;;8.23;6.17;;;3.70;99.90;;;;;;5023761;28;20220;-71
2024/01/07 12:08:31;;;;;;;7.00;6.07;;;3.60;99.90;;;;;;5020043;28;22244;-69
2024/01/07 12:10:58;;;;;;;35.70;15.20;;;3.60;99.90;;;;;;5027631;28;20196;-69
2024/01/07 12:13:27;;;;;;;15.87;8.90;;;3.60;99.90;;;;;;5021782;28;20219;-65
2024/01/07 12:15:54;;;;;;;6.23;5.27;;;3.40;99.90;;;;;;5006192;28;20204;-67
2024/01/07 12:18:22;;;;;;;5.93;5.43;;;2.80;99.90;;;;;;5024625;28;20195;-71
2024/01/07 12:20:57;;;;;;;8.37;6.30;;;3.30;99.90;;;;;;5016145;28;20285;-67
2024/01/07 12:23:25;;;;;;;6.17;5.60;;;3.40;99.90;;;;;;5022419;28;20341;-68
2024/01/07 12:25:52;;;;;;;6.73;4.97;;;3.50;99.90;;;;;;5024117;28;20235;-68
2024/01/07 12:28:19;;;;;;;8.63;5.73;;;3.50;99.90;;;;;;5020212;28;20236;-62
2024/01/07 12:30:49;;;;;;;11.20;5.47;;;3.40;99.90;;;;;;5016715;28;20769;-70
2024/01/07 12:33:18;;;;;;;6.13;5.10;;;3.50;99.90;;;;;;5018150;28;20984;-70
2024/01/07 12:35:46;;;;;;;5.77;4.70;;;3.40;99.90;;;;;;5020296;28;20675;-66
2024/01/07 12:38:13;;;;;;;6.23;5.30;;;3.50;99.90;;;;;;5023350;28;20283;-70
2024/01/07 12:40:40;;;;;;;7.27;4.57;;;3.70;99.90;;;;;;5018982;28;20622;-66
2024/01/07 12:43:07;;;;;;;6.20;4.40;;;3.60;99.90;;;;;;5018076;28;20271;-69
2024/01/07 12:45:34;;;;;;;5.77;4.07;;;3.60;99.90;;;;;;5018187;28;20803;-66
2024/01/07 12:48:03;;;;;;;8.17;5.47;;;3.60;99.90;;;;;;5019453;28;20204;-67
2024/01/07 12:50:31;;;;;;;5.37;3.73;;;3.40;99.90;;;;;;5018384;28;22315;-65
2024/01/07 12:52:58;;;;;;;3.93;3.53;;;3.50;99.90;;;;;;5025661;28;20220;-72
2024/01/07 12:55:26;;;;;;;3.67;3.33;;;3.60;99.90;;;;;;5013150;28;20202;-72
2024/01/07 12:57:54;;;;;;;2.33;2.13;;;3.80;99.90;;;;;;5023122;28;20255;-75
2024/01/07 13:00:21;;;;;;;4.10;3.33;;;3.80;99.90;;;;;;5018454;28;20684;-67
2024/01/07 13:02:48;;;;;;;3.23;2.90;;;3.60;99.90;;;;;;5021894;28;20216;-67